createdAt,value
2023-03-05T00:01:07.275Z,10.05
2023-03-05T00:03:33.737Z,14.25
2023-03-05T00:06:00.173Z,10.95
2023-03-05T00:08:28.362Z,8.85
2023-03-05T00:10:58.549Z,10.60
2023-03-05T00:13:25.422Z,11.68
2023-03-05T00:15:51.893Z,10.02
2023-03-05T00:18:18.433Z,8.05
2023-03-05T00:20:44.770Z,8.40
2023-03-05T00:23:11.147Z,12.25
2023-03-05T00:25:37.803Z,11.00
2023-03-05T00:28:04.701Z,5.70
2023-03-05T00:30:31.958Z,6.93
2023-03-05T00:32:58.628Z,10.45
2023-03-05T00:35:25.068Z,13.45
2023-03-05T00:37:51.475Z,10.15
2023-03-05T00:40:18.494Z,7.15
2023-03-05T00:42:45.064Z,15.95
2023-03-05T00:45:12.219Z,7.45
2023-03-05T00:47:38.972Z,9.25
2023-03-05T00:50:07.297Z,12.95
2023-03-05T00:52:33.921Z,11.55
2023-03-05T00:55:00.273Z,7.47
2023-03-05T00:57:28.487Z,7.78
2023-03-05T00:59:54.884Z,12.40
2023-03-05T01:02:21.252Z,12.88
2023-03-05T01:04:47.781Z,5.80
2023-03-05T01:07:15.044Z,12.80
2023-03-05T01:09:41.391Z,14.35
2023-03-05T01:12:08.427Z,8.90
2023-03-05T01:14:36.016Z,7.28
2023-03-05T01:17:02.539Z,14.23
2023-03-05T01:19:28.891Z,9.43
2023-03-05T01:21:55.282Z,3.80
2023-03-05T01:24:22.363Z,10.82
2023-03-05T01:26:49.334Z,7.30
2023-03-05T01:29:15.691Z,8.88
2023-03-05T01:31:42.090Z,10.13
2023-03-05T01:34:08.464Z,11.52
2023-03-05T01:36:34.892Z,8.80
2023-03-05T01:39:02.347Z,9.25
2023-03-05T01:41:28.809Z,13.80
2023-03-05T01:43:55.181Z,10.65
2023-03-05T01:46:25.448Z,9.77
2023-03-05T01:48:54.143Z,12.55
2023-03-05T01:51:24.661Z,8.32
2023-03-05T01:53:51.254Z,9.38
2023-03-05T01:56:17.778Z,6.60
2023-03-05T01:58:45.784Z,11.10
2023-03-05T02:01:12.449Z,10.32
2023-03-05T02:03:39.291Z,17.75
2023-03-05T02:06:05.721Z,16.65
2023-03-05T02:08:32.164Z,9.40
2023-03-05T02:11:00.185Z,8.85
2023-03-05T02:13:32.085Z,15.88
2023-03-05T02:16:00.187Z,6.25
2023-03-05T02:18:27.443Z,11.95
2023-03-05T02:20:56.837Z,9.10
2023-03-05T02:23:26.430Z,10.00
2023-03-05T02:25:53.647Z,7.60
2023-03-05T02:28:30.770Z,8.10
2023-03-05T02:30:57.365Z,7.95
2023-03-05T02:33:23.974Z,9.43
2023-03-05T02:35:50.894Z,4.22
2023-03-05T02:38:19.675Z,5.75
2023-03-05T02:40:46.152Z,7.95
2023-03-05T02:43:14.053Z,7.72
2023-03-05T02:45:40.463Z,3.80
2023-03-05T02:48:07.000Z,7.63
2023-03-05T02:50:34.270Z,6.55
2023-03-05T02:53:00.671Z,9.00
2023-03-05T02:55:27.909Z,7.25
2023-03-05T02:57:54.335Z,6.55
2023-03-05T03:00:22.126Z,4.30
2023-03-05T03:02:48.572Z,6.72
2023-03-05T03:05:15.180Z,8.02
2023-03-05T03:07:41.827Z,9.70
2023-03-05T03:10:08.806Z,10.63
2023-03-05T03:12:43.444Z,5.72
2023-03-05T03:15:11.596Z,5.53
2023-03-05T03:17:39.248Z,5.40
2023-03-05T03:20:08.692Z,8.27
2023-03-05T03:22:35.170Z,8.32
2023-03-05T03:25:02.027Z,7.88
2023-03-05T03:27:28.392Z,5.40
2023-03-05T03:29:54.751Z,9.32
2023-03-05T03:32:21.150Z,7.97
2023-03-05T03:34:48.092Z,7.43
2023-03-05T03:37:15.145Z,9.50
2023-03-05T03:39:41.528Z,6.22
2023-03-05T03:42:08.057Z,7.82
2023-03-05T03:44:34.479Z,7.10
2023-03-05T03:47:01.581Z,7.38
2023-03-05T03:49:28.590Z,10.15
2023-03-05T03:51:55.438Z,4.63
2023-03-05T03:54:22.273Z,5.20
2023-03-05T03:56:48.738Z,9.25
2023-03-05T03:59:15.089Z,8.70
2023-03-05T04:01:41.560Z,7.65
2023-03-05T04:04:08.804Z,7.10
2023-03-05T04:06:35.263Z,9.75
2023-03-05T04:09:02.188Z,7.13
2023-03-05T04:11:28.580Z,7.15
2023-03-05T04:13:54.961Z,10.57
2023-03-05T04:16:22.018Z,6.70
2023-03-05T04:18:48.427Z,7.80
2023-03-05T04:21:15.053Z,5.97
2023-03-05T04:23:41.458Z,7.70
2023-03-05T04:26:07.804Z,8.93
2023-03-05T04:28:34.263Z,10.73
2023-03-05T04:31:00.674Z,5.80
2023-03-05T04:33:27.533Z,7.38
2023-03-05T04:35:53.924Z,9.18
2023-03-05T04:38:20.357Z,8.27
2023-03-05T04:40:46.843Z,8.77
2023-03-05T04:43:13.541Z,8.15
2023-03-05T04:45:43.690Z,10.30
2023-03-05T04:48:11.060Z,8.57
2023-03-05T04:50:38.049Z,9.52
2023-03-05T04:53:04.660Z,6.93
2023-03-05T04:55:31.071Z,10.73
2023-03-05T04:58:05.295Z,10.77
2023-03-05T05:00:31.743Z,13.90
2023-03-05T05:02:58.176Z,9.90
2023-03-05T05:05:27.309Z,9.05
2023-03-05T05:07:58.608Z,9.35
2023-03-05T05:10:26.513Z,7.70
2023-03-05T05:12:53.263Z,8.93
2023-03-05T05:15:19.863Z,9.15
2023-03-05T05:17:47.097Z,11.48
2023-03-05T05:20:15.204Z,8.25
2023-03-05T05:22:42.285Z,10.07
2023-03-05T05:25:10.847Z,11.40
2023-03-05T05:27:38.945Z,6.80
2023-03-05T05:30:06.815Z,12.45
2023-03-05T05:32:33.554Z,7.75
2023-03-05T05:35:01.069Z,9.00
2023-03-05T05:37:27.591Z,6.15
2023-03-05T05:39:54.119Z,6.55
2023-03-05T05:42:22.715Z,6.90
2023-03-05T05:44:49.971Z,10.10
2023-03-05T05:47:18.890Z,11.73
2023-03-05T05:49:45.277Z,9.57
2023-03-05T05:52:11.936Z,5.07
2023-03-05T05:54:38.459Z,10.80
2023-03-05T05:57:04.929Z,9.02
2023-03-05T05:59:31.292Z,4.65
2023-03-05T06:01:57.715Z,8.05
2023-03-05T06:04:24.068Z,5.57
2023-03-05T06:06:50.559Z,9.50
2023-03-05T06:09:17.325Z,6.75
2023-03-05T06:11:43.661Z,8.85
2023-03-05T06:14:12.335Z,6.97
2023-03-05T06:16:39.085Z,8.25
2023-03-05T06:19:05.694Z,5.30
2023-03-05T06:21:33.093Z,5.32
2023-03-05T06:24:00.123Z,10.45
2023-03-05T06:26:26.529Z,5.70
2023-03-05T06:28:53.848Z,4.55
2023-03-05T06:31:25.814Z,6.40
2023-03-05T06:33:54.489Z,4.05
2023-03-05T06:36:22.338Z,3.25
2023-03-05T06:38:49.346Z,6.82
2023-03-05T06:41:18.653Z,9.18
2023-03-05T06:43:46.733Z,3.50
2023-03-05T06:46:16.032Z,8.57
2023-03-05T06:48:43.267Z,5.95
2023-03-05T06:51:17.140Z,6.95
2023-03-05T06:53:44.658Z,6.18
2023-03-05T06:56:13.879Z,3.70
2023-03-05T06:58:40.928Z,5.43
2023-03-05T07:01:07.603Z,6.25
2023-03-05T07:03:35.676Z,4.88
2023-03-05T07:06:04.448Z,6.45
2023-03-05T07:08:31.188Z,4.47
2023-03-05T07:10:57.584Z,3.63
2023-03-05T07:13:23.970Z,6.60
2023-03-05T07:15:50.434Z,6.15
2023-03-05T07:18:16.980Z,5.15
2023-03-05T07:20:43.896Z,4.60
2023-03-05T07:23:10.288Z,8.15
2023-03-05T07:25:37.575Z,9.40
2023-03-05T07:28:12.232Z,7.28
2023-03-05T07:30:38.666Z,4.28
2023-03-05T07:33:05.035Z,5.05
2023-03-05T07:35:31.438Z,5.70
2023-03-05T07:37:57.787Z,6.72
2023-03-05T07:40:24.152Z,5.90
2023-03-05T07:42:50.522Z,7.97
2023-03-05T07:45:27.071Z,7.30
2023-03-05T07:47:53.424Z,6.68
2023-03-05T07:50:19.844Z,7.25
2023-03-05T07:52:46.237Z,5.00
2023-03-05T07:55:12.710Z,3.95
2023-03-05T07:57:39.150Z,6.55
2023-03-05T08:00:07.335Z,5.60
2023-03-05T08:02:38.164Z,5.43
2023-03-05T08:05:04.856Z,6.15
2023-03-05T08:07:31.192Z,6.07
2023-03-05T08:09:57.555Z,5.30
2023-03-05T08:12:23.981Z,6.15
2023-03-05T08:14:51.443Z,4.88
2023-03-05T08:17:18.301Z,5.40
2023-03-05T08:19:44.658Z,7.60
2023-03-05T08:22:11.076Z,6.13
2023-03-05T08:24:37.808Z,8.50
2023-03-05T08:27:04.194Z,8.20
2023-03-05T08:29:30.592Z,4.57
2023-03-05T08:31:56.922Z,7.07
2023-03-05T08:34:23.288Z,8.88
2023-03-05T08:36:50.090Z,6.28
2023-03-05T08:39:16.533Z,7.75
2023-03-05T08:41:42.937Z,5.63
2023-03-05T08:44:09.481Z,5.60
2023-03-05T08:46:36.854Z,8.80
2023-03-05T08:49:03.264Z,5.13
2023-03-05T08:51:29.629Z,6.10
2023-03-05T08:53:58.418Z,6.07
2023-03-05T08:56:26.208Z,5.90
2023-03-05T08:58:52.945Z,7.40
2023-03-05T09:01:19.576Z,12.05
2023-03-05T09:03:46.138Z,8.55
2023-03-05T09:06:12.595Z,6.60
2023-03-05T09:08:39.154Z,7.07
2023-03-05T09:11:07.467Z,6.82
2023-03-05T09:13:34.614Z,4.75
2023-03-05T09:16:03.967Z,6.60
2023-03-05T09:18:30.454Z,7.03
2023-03-05T09:20:57.034Z,7.00
2023-03-05T09:23:23.785Z,8.85
2023-03-05T09:25:50.534Z,5.93
2023-03-05T09:28:17.255Z,5.88
2023-03-05T09:30:43.601Z,7.28
2023-03-05T09:33:09.944Z,7.40
2023-03-05T09:35:36.992Z,7.32
2023-03-05T09:38:03.963Z,10.18
2023-03-05T09:40:55.530Z,8.10
2023-03-05T09:43:43.394Z,4.55
2023-03-05T09:46:25.843Z,9.07
2023-03-05T09:48:57.948Z,6.32
2023-03-05T09:51:27.838Z,5.38
2023-03-05T09:54:02.260Z,10.45
2023-03-05T09:56:46.965Z,6.45
2023-03-05T09:59:25.886Z,3.05
2023-03-05T10:02:01.984Z,20.17
2023-03-05T10:04:41.787Z,9.65
2023-03-05T10:07:15.092Z,8.90
2023-03-05T10:09:47.344Z,6.55
2023-03-05T10:12:27.639Z,4.63
2023-03-05T10:14:54.729Z,8.73
2023-03-05T10:17:39.786Z,4.88
2023-03-05T10:20:48.805Z,5.45
2023-03-05T10:23:47.933Z,7.97
2023-03-05T10:26:57.489Z,7.13
2023-03-05T10:29:56.336Z,5.93
2023-03-05T10:33:04.713Z,6.10
2023-03-05T10:35:46.236Z,16.20
2023-03-05T10:38:31.527Z,6.03
2023-03-05T10:41:06.551Z,8.45
2023-03-05T10:43:53.657Z,5.75
2023-03-05T10:46:23.780Z,6.57
2023-03-05T10:49:21.345Z,2.97
2023-03-05T10:52:11.076Z,5.07
2023-03-05T10:54:41.657Z,2.00
2023-03-05T10:57:30.540Z,3.25
2023-03-05T11:00:05.776Z,2.85
2023-03-05T11:02:35.006Z,2.95
2023-03-05T11:05:01.765Z,2.75
2023-03-05T11:07:31.909Z,1.85
2023-03-05T11:10:03.978Z,5.20
2023-03-05T11:12:35.172Z,5.60
2023-03-05T11:15:07.300Z,3.53
2023-03-05T11:17:37.770Z,3.13
2023-03-05T11:20:22.967Z,10.38
2023-03-05T11:23:05.866Z,4.97
2023-03-05T11:25:34.013Z,3.08
2023-03-05T11:28:02.616Z,5.28
2023-03-05T11:30:32.023Z,5.93
2023-03-05T11:33:15.732Z,7.32
2023-03-05T11:35:43.594Z,5.88
2023-03-05T11:38:25.470Z,3.85
2023-03-05T11:40:55.030Z,7.13
2023-03-05T11:43:24.249Z,2.17
2023-03-05T11:46:10.150Z,3.78
2023-03-05T11:48:38.699Z,1.65
2023-03-05T11:51:16.533Z,3.42
2023-03-05T11:53:46.998Z,1.50
2023-03-05T11:56:21.232Z,4.57
2023-03-05T11:58:58.754Z,2.05
2023-03-05T12:01:29.085Z,2.47
2023-03-05T12:03:55.967Z,1.80
2023-03-05T12:06:42.623Z,4.53
2023-03-05T12:09:42.360Z,3.92
2023-03-05T12:12:36.140Z,1.48
2023-03-05T12:15:17.466Z,3.58
2023-03-05T12:18:06.990Z,1.80
2023-03-05T12:20:58.899Z,2.80
2023-03-05T12:23:27.867Z,2.83
2023-03-05T12:26:01.070Z,3.70
2023-03-05T12:28:31.400Z,2.65
2023-03-05T12:31:00.863Z,4.93
2023-03-05T12:33:38.889Z,4.47
2023-03-05T12:36:17.435Z,4.18
2023-03-05T12:38:45.154Z,2.47
2023-03-05T12:41:23.361Z,3.72
2023-03-05T12:44:05.105Z,5.32
2023-03-05T12:46:42.703Z,3.35
2023-03-05T12:49:18.136Z,4.18
2023-03-05T12:51:47.615Z,3.00
2023-03-05T12:54:28.661Z,4.15
2023-03-05T12:57:01.605Z,4.20
2023-03-05T12:59:38.708Z,2.45
2023-03-05T13:02:34.625Z,2.92
2023-03-05T13:05:08.341Z,2.28
2023-03-05T13:07:35.296Z,4.35
2023-03-05T13:10:01.986Z,5.78
2023-03-05T13:12:30.317Z,5.28
2023-03-05T13:15:08.733Z,1.98
2023-03-05T13:17:44.242Z,2.97
2023-03-05T13:20:34.129Z,4.78
2023-03-05T13:23:09.709Z,4.05
2023-03-05T13:25:36.100Z,4.00
2023-03-05T13:28:04.664Z,3.70
2023-03-05T13:30:33.601Z,3.60
2023-03-05T13:33:03.403Z,4.38
2023-03-05T13:35:31.691Z,3.38
2023-03-05T13:37:58.309Z,4.43
2023-03-05T13:40:29.440Z,4.82
2023-03-05T13:43:09.144Z,3.28
2023-03-05T13:45:35.584Z,4.28
2023-03-05T13:48:04.785Z,5.60
2023-03-05T13:50:32.830Z,4.97
2023-03-05T13:53:20.965Z,5.13
2023-03-05T13:55:52.800Z,3.05
2023-03-05T13:58:52.341Z,4.75
2023-03-05T14:01:28.133Z,6.53
2023-03-05T14:04:19.489Z,2.67
2023-03-05T14:07:00.421Z,4.57
2023-03-05T14:09:28.698Z,10.32
2023-03-05T14:11:59.087Z,5.47
2023-03-05T14:14:27.270Z,2.90
2023-03-05T14:16:53.765Z,7.55
2023-03-05T14:19:38.079Z,4.55
2023-03-05T14:22:06.334Z,6.45
2023-03-05T14:24:33.919Z,4.65
2023-03-05T14:27:19.768Z,5.43
2023-03-05T14:29:46.635Z,5.65
2023-03-05T14:32:24.957Z,3.75
2023-03-05T14:34:57.048Z,5.75
2023-03-05T14:37:45.245Z,2.95
2023-03-05T14:40:12.091Z,4.93
2023-03-05T14:42:41.432Z,6.30
2023-03-05T14:45:17.777Z,11.18
2023-03-05T14:47:45.060Z,5.97
2023-03-05T14:50:15.984Z,6.22
2023-03-05T14:52:43.142Z,5.63
2023-03-05T14:55:22.695Z,5.88
2023-03-05T14:57:51.442Z,7.00
2023-03-05T15:00:23.390Z,5.18
2023-03-05T15:02:50.400Z,3.42
2023-03-05T15:05:17.767Z,5.07
2023-03-05T15:07:45.230Z,5.07
2023-03-05T15:10:20.777Z,3.75
2023-03-05T15:12:50.207Z,4.68
2023-03-05T15:15:17.894Z,5.97
2023-03-05T15:17:49.623Z,3.45
2023-03-05T15:20:27.835Z,4.28
2023-03-05T15:22:54.647Z,6.97
2023-03-05T15:25:23.133Z,7.13
2023-03-05T15:27:50.946Z,7.43
2023-03-05T15:30:23.362Z,4.07
2023-03-05T15:32:51.213Z,6.13
2023-03-05T15:35:18.047Z,5.60
2023-03-05T15:37:44.577Z,4.13
2023-03-05T15:40:12.044Z,7.18
2023-03-05T15:42:40.338Z,5.93
2023-03-05T15:45:08.742Z,7.65
2023-03-05T15:47:35.072Z,8.93
2023-03-05T15:50:02.205Z,6.10
2023-03-05T15:52:28.613Z,6.15
2023-03-05T15:54:55.165Z,6.72
2023-03-05T15:57:22.487Z,5.88
2023-03-05T15:59:48.820Z,4.32
2023-03-05T16:02:15.960Z,5.75
2023-03-05T16:04:42.330Z,4.45
2023-03-05T16:07:09.149Z,5.07
2023-03-05T16:09:39.106Z,4.82
2023-03-05T16:12:09.733Z,5.28
2023-03-05T16:14:38.688Z,6.00
2023-03-05T16:17:06.199Z,8.85
2023-03-05T16:19:36.654Z,5.20
2023-03-05T16:22:03.088Z,5.72
2023-03-05T16:24:29.449Z,9.63
2023-03-05T16:26:55.840Z,5.93
2023-03-05T16:29:22.212Z,6.00
2023-03-05T16:31:48.717Z,6.10
2023-03-05T16:34:16.163Z,8.95
2023-03-05T16:36:47.722Z,9.40
2023-03-05T16:39:14.916Z,6.32
2023-03-05T16:41:41.263Z,5.57
2023-03-05T16:44:07.729Z,4.75
2023-03-05T16:46:35.226Z,5.05
2023-03-05T16:49:02.083Z,4.63
2023-03-05T16:51:28.549Z,5.90
2023-03-05T16:53:55.831Z,3.72
2023-03-05T16:56:22.980Z,5.45
2023-03-05T16:58:52.190Z,6.35
2023-03-05T17:01:20.851Z,4.07
2023-03-05T17:03:47.945Z,4.53
2023-03-05T17:06:17.413Z,5.53
2023-03-05T17:08:45.386Z,7.28
2023-03-05T17:11:12.625Z,5.00
2023-03-05T17:13:40.270Z,5.82
2023-03-05T17:16:07.475Z,5.18
2023-03-05T17:18:33.891Z,5.25
2023-03-05T17:21:01.789Z,5.22
2023-03-05T17:23:28.274Z,6.75
2023-03-05T17:25:54.901Z,3.97
2023-03-05T17:28:21.501Z,5.28
2023-03-05T17:30:47.854Z,11.65
2023-03-05T17:33:14.240Z,9.32
2023-03-05T17:35:46.916Z,6.82
2023-03-05T17:38:14.240Z,6.63
2023-03-05T17:40:40.588Z,5.47
2023-03-05T17:43:06.934Z,5.28
2023-03-05T17:45:35.248Z,3.15
2023-03-05T17:48:01.914Z,5.28
2023-03-05T17:50:28.289Z,3.90
2023-03-05T17:52:55.165Z,4.85
2023-03-05T17:55:24.048Z,4.30
2023-03-05T17:57:50.874Z,9.73
2023-03-05T18:00:20.528Z,4.60
2023-03-05T18:02:46.955Z,8.27
2023-03-05T18:05:13.947Z,3.15
2023-03-05T18:07:40.271Z,5.32
2023-03-05T18:10:08.976Z,5.03
2023-03-05T18:12:36.029Z,8.38
2023-03-05T18:15:04.158Z,8.88
2023-03-05T18:17:30.628Z,10.05
2023-03-05T18:19:57.021Z,8.10
2023-03-05T18:22:23.362Z,7.68
2023-03-05T18:24:49.734Z,5.25
2023-03-05T18:27:16.220Z,5.55
2023-03-05T18:29:42.988Z,7.55
2023-03-05T18:32:13.465Z,10.23
2023-03-05T18:34:39.845Z,5.90
2023-03-05T18:37:06.285Z,7.18
2023-03-05T18:39:41.011Z,5.43
2023-03-05T18:42:12.364Z,10.48
2023-03-05T18:44:38.929Z,9.18
2023-03-05T18:47:05.309Z,16.30
2023-03-05T18:49:31.648Z,8.73
2023-03-05T18:51:58.498Z,6.82
2023-03-05T18:54:24.845Z,6.57
2023-03-05T18:56:51.198Z,6.68
2023-03-05T18:59:17.538Z,8.63
2023-03-05T19:01:44.354Z,7.80
2023-03-05T19:04:11.225Z,4.30
2023-03-05T19:06:38.353Z,7.72
2023-03-05T19:09:11.976Z,6.18
2023-03-05T19:11:38.347Z,5.70
2023-03-05T19:14:04.707Z,9.25
2023-03-05T19:16:41.668Z,10.90
2023-03-05T19:19:24.872Z,4.72
2023-03-05T19:21:53.929Z,7.40
2023-03-05T19:24:24.845Z,3.97
2023-03-05T19:26:55.153Z,6.60
2023-03-05T19:29:25.889Z,5.45
2023-03-05T19:31:53.374Z,9.77
2023-03-05T19:34:20.636Z,7.72
2023-03-05T19:36:47.781Z,11.27
2023-03-05T19:39:14.210Z,8.35
2023-03-05T19:41:40.576Z,9.02
2023-03-05T19:44:07.247Z,5.68
2023-03-05T19:46:33.917Z,5.93
2023-03-05T19:49:03.758Z,5.88
2023-03-05T19:51:36.471Z,6.07
2023-03-05T19:54:07.408Z,6.85
2023-03-05T19:56:39.468Z,6.40
2023-03-05T19:59:16.224Z,6.82
2023-03-05T20:01:42.746Z,8.23
2023-03-05T20:04:13.479Z,5.72
2023-03-05T20:06:43.518Z,6.53
2023-03-05T20:09:10.019Z,8.00
2023-03-05T20:11:37.249Z,7.05
2023-03-05T20:14:04.469Z,6.40
2023-03-05T20:16:32.778Z,3.70
2023-03-05T20:18:59.546Z,6.57
2023-03-05T20:21:38.992Z,7.55
2023-03-05T20:24:09.768Z,5.97
2023-03-05T20:26:38.049Z,7.32
2023-03-05T20:29:04.995Z,10.73
2023-03-05T20:31:36.785Z,9.20
2023-03-05T20:34:05.618Z,9.68
2023-03-05T20:36:32.218Z,11.38
2023-03-05T20:38:58.573Z,12.52
2023-03-05T20:41:24.940Z,12.90
2023-03-05T20:43:52.042Z,15.32
2023-03-05T20:46:21.615Z,15.90
2023-03-05T20:48:50.295Z,14.88
2023-03-05T20:51:24.241Z,15.45
2023-03-05T20:53:53.956Z,20.23
2023-03-05T20:56:20.529Z,15.57
2023-03-05T20:58:46.901Z,14.02
2023-03-05T21:01:13.334Z,16.00
2023-03-05T21:03:40.938Z,12.13
2023-03-05T21:06:07.718Z,13.35
2023-03-05T21:08:34.828Z,13.20
2023-03-05T21:11:08.745Z,11.38
2023-03-05T21:13:35.606Z,9.43
2023-03-05T21:16:09.685Z,14.98
2023-03-05T21:18:36.302Z,15.23
2023-03-05T21:21:03.104Z,9.43
2023-03-05T21:23:29.477Z,8.43
2023-03-05T21:25:59.911Z,10.05
2023-03-05T21:28:33.585Z,10.15
2023-03-05T21:31:06.830Z,13.13
2023-03-05T21:33:33.195Z,10.45
2023-03-05T21:35:59.822Z,10.23
2023-03-05T21:38:29.676Z,14.38
2023-03-05T21:40:58.387Z,10.05
2023-03-05T21:43:26.204Z,9.52
2023-03-05T21:45:54.558Z,12.60
2023-03-05T21:48:22.670Z,9.93
2023-03-05T21:50:51.077Z,14.00
2023-03-05T21:53:19.031Z,13.30
2023-03-05T21:56:10.745Z,12.20
2023-03-05T21:58:37.122Z,10.90
2023-03-05T22:01:03.701Z,12.15
2023-03-05T22:03:30.376Z,12.57
2023-03-05T22:05:57.317Z,14.07
2023-03-05T22:08:24.601Z,11.30
2023-03-05T22:10:51.363Z,14.25
2023-03-05T22:13:19.921Z,12.50
2023-03-05T22:15:49.479Z,11.05
2023-03-05T22:18:21.365Z,11.80
2023-03-05T22:20:48.318Z,12.05
2023-03-05T22:23:16.353Z,12.77
2023-03-05T22:25:43.231Z,14.45
2023-03-05T22:28:11.484Z,14.32
2023-03-05T22:30:43.788Z,13.85
2023-03-05T22:33:10.964Z,14.30
2023-03-05T22:35:39.574Z,15.70
2023-03-05T22:38:06.577Z,16.42
2023-03-05T22:40:32.949Z,12.85
2023-03-05T22:42:59.284Z,14.73
2023-03-05T22:45:25.613Z,15.52
2023-03-05T22:47:51.961Z,16.92
2023-03-05T22:50:18.514Z,16.08
2023-03-05T22:52:44.904Z,17.80
2023-03-05T22:55:13.130Z,18.70
2023-03-05T22:57:40.274Z,19.30
2023-03-05T23:00:13.235Z,16.17
2023-03-05T23:02:41.113Z,16.20
2023-03-05T23:05:07.762Z,17.13
2023-03-05T23:07:36.172Z,18.50
2023-03-05T23:10:09.999Z,17.30
2023-03-05T23:12:41.654Z,16.73
2023-03-05T23:15:11.690Z,16.25
2023-03-05T23:17:38.071Z,15.98
2023-03-05T23:20:08.166Z,14.90
2023-03-05T23:22:38.925Z,15.15
2023-03-05T23:25:05.861Z,13.57
2023-03-05T23:27:32.192Z,12.02
2023-03-05T23:30:21.222Z,13.23
2023-03-05T23:32:53.724Z,11.68
2023-03-05T23:35:29.117Z,13.32
2023-03-05T23:37:56.893Z,11.57
2023-03-05T23:40:26.952Z,12.00
2023-03-05T23:42:53.352Z,10.77
2023-03-05T23:45:21.665Z,13.98
2023-03-05T23:47:48.900Z,13.85
2023-03-05T23:50:19.027Z,15.90
2023-03-05T23:52:45.849Z,17.25
2023-03-05T23:55:20.165Z,15.57
2023-03-05T23:57:46.940Z,16.75
